createdAt,value
2019-05-17T00:01:42.140Z,3.17
2019-05-17T00:04:08.531Z,2.08
2019-05-17T00:06:37.834Z,2.30
2019-05-17T00:09:07.787Z,1.98
2019-05-17T00:11:40.169Z,2.00
2019-05-17T00:14:13.412Z,1.37
2019-05-17T00:16:43.774Z,1.42
2019-05-17T00:19:13.186Z,1.25
2019-05-17T00:21:47.676Z,1.27
2019-05-17T00:24:20.343Z,2.95
2019-05-17T00:26:49.794Z,1.85
2019-05-17T00:29:18.889Z,1.67
2019-05-17T00:31:48.860Z,3.45
2019-05-17T00:34:19.596Z,2.08
2019-05-17T00:36:50.684Z,1.47
2019-05-17T00:39:31.381Z,3.22
2019-05-17T00:42:02.596Z,2.22
2019-05-17T00:44:32.984Z,1.95
2019-05-17T00:47:06.591Z,2.70
2019-05-17T00:49:39.473Z,1.67
2019-05-17T00:52:08.665Z,2.02
2019-05-17T00:54:43.187Z,2.00
2019-05-17T00:57:13.921Z,1.95
2019-05-17T00:59:48.237Z,1.30
2019-05-17T01:02:17.639Z,1.05
2019-05-17T01:04:47.568Z,1.65
2019-05-17T01:07:17.735Z,2.33
2019-05-17T01:09:47.309Z,1.75
2019-05-17T01:12:16.578Z,1.17
2019-05-17T01:14:47.779Z,2.02
2019-05-17T01:17:17.022Z,1.17
2019-05-17T01:19:47.167Z,2.25
2019-05-17T01:22:16.978Z,1.17
2019-05-17T01:24:49.281Z,1.20
2019-05-17T01:27:18.777Z,1.10
2019-05-17T01:29:47.965Z,1.32
2019-05-17T01:32:17.588Z,1.35
2019-05-17T01:34:48.574Z,1.47
2019-05-17T01:37:20.467Z,2.00
2019-05-17T01:39:49.729Z,1.87
2019-05-17T01:42:21.082Z,1.55
2019-05-17T01:44:53.097Z,2.35
2019-05-17T01:47:22.169Z,1.30
2019-05-17T01:49:51.403Z,2.72
2019-05-17T01:52:20.746Z,1.30
2019-05-17T01:54:52.975Z,1.67
2019-05-17T01:57:23.224Z,1.92
2019-05-17T01:59:52.394Z,1.35
2019-05-17T02:02:28.991Z,1.65
2019-05-17T02:05:02.151Z,1.47
2019-05-17T02:07:31.441Z,1.55
2019-05-17T02:10:01.126Z,1.67
2019-05-17T02:12:37.903Z,1.07
2019-05-17T02:15:07.565Z,1.25
2019-05-17T02:17:37.292Z,1.82
2019-05-17T02:20:10.268Z,1.75
2019-05-17T02:22:40.719Z,1.40
2019-05-17T02:25:16.560Z,1.62
2019-05-17T02:27:46.423Z,1.47
2019-05-17T02:30:16.033Z,1.90
2019-05-17T02:32:53.860Z,1.75
2019-05-17T02:35:23.774Z,1.37
2019-05-17T02:37:56.453Z,1.30
2019-05-17T02:40:25.972Z,1.40
2019-05-17T02:42:55.215Z,1.07
2019-05-17T02:45:24.633Z,2.25
2019-05-17T02:47:56.901Z,1.32
2019-05-17T02:50:43.158Z,1.40
2019-05-17T02:53:18.147Z,2.22
2019-05-17T02:55:53.906Z,2.33
2019-05-17T02:58:23.669Z,0.75
2019-05-17T03:00:53.545Z,1.02
2019-05-17T03:03:26.527Z,1.25
2019-05-17T03:05:56.000Z,4.10
2019-05-17T03:08:33.633Z,2.45
2019-05-17T03:11:03.503Z,1.12
2019-05-17T03:13:33.216Z,2.45
2019-05-17T03:16:04.236Z,1.87
2019-05-17T03:18:35.140Z,1.42
2019-05-17T03:21:13.880Z,0.93
2019-05-17T03:23:43.840Z,1.98
2019-05-17T03:26:14.802Z,1.10
2019-05-17T03:28:45.921Z,1.30
2019-05-17T03:31:19.737Z,2.17
2019-05-17T03:33:55.830Z,3.00
2019-05-17T03:36:26.148Z,1.22
2019-05-17T03:41:29.201Z,0.80
2019-05-17T03:44:03.217Z,0.90
2019-05-17T03:46:35.796Z,0.62
2019-05-17T03:49:12.850Z,1.45
2019-05-17T03:51:44.670Z,1.10
2019-05-17T03:54:17.751Z,1.82
2019-05-17T03:56:55.831Z,1.65
2019-05-17T03:59:25.401Z,1.10
2019-05-17T04:01:54.764Z,1.32
2019-05-17T04:04:26.100Z,1.15
2019-05-17T04:07:03.674Z,1.75
2019-05-17T04:09:37.757Z,1.42
2019-05-17T04:12:06.685Z,1.62
2019-05-17T04:14:42.931Z,2.02
2019-05-17T04:17:14.564Z,1.10
2019-05-17T04:19:48.462Z,1.45
2019-05-17T04:22:23.870Z,1.65
2019-05-17T04:24:53.320Z,1.32
2019-05-17T04:27:26.515Z,1.05
2019-05-17T04:29:56.128Z,1.50
2019-05-17T04:32:25.479Z,1.10
2019-05-17T04:35:03.679Z,1.35
2019-05-17T04:37:33.569Z,1.52
2019-05-17T04:42:44.838Z,1.02
2019-05-17T04:45:15.788Z,0.80
2019-05-17T04:47:52.869Z,1.10
2019-05-17T04:50:27.490Z,1.62
2019-05-17T04:53:02.343Z,0.70
2019-05-17T04:55:29.515Z,1.12
2019-05-17T04:58:04.063Z,1.25
2019-05-17T05:00:34.395Z,1.50
2019-05-17T05:03:12.858Z,0.98
2019-05-17T05:05:43.728Z,1.37
2019-05-17T05:08:28.231Z,3.80
2019-05-17T05:10:57.546Z,2.98
2019-05-17T05:13:27.076Z,8.35
2019-05-17T05:16:05.758Z,3.92
2019-05-17T05:18:41.932Z,5.30
2019-05-17T05:21:12.834Z,2.30
2019-05-17T05:23:42.710Z,3.08
2019-05-17T05:26:12.421Z,5.47
2019-05-17T05:28:52.667Z,6.00
2019-05-17T05:31:29.006Z,5.37
2019-05-17T05:34:06.549Z,2.50
2019-05-17T05:36:41.886Z,2.87
2019-05-17T05:39:11.723Z,2.90
2019-05-17T05:41:46.286Z,2.87
2019-05-17T05:44:38.461Z,4.95
2019-05-17T05:47:23.558Z,2.40
2019-05-17T05:50:17.629Z,9.53
2019-05-17T05:52:46.063Z,5.15
2019-05-17T05:55:15.408Z,4.72
2019-05-17T05:57:52.294Z,5.60
2019-05-17T06:00:25.417Z,3.10
2019-05-17T06:02:57.664Z,2.80
2019-05-17T06:05:26.947Z,4.17
2019-05-17T06:07:56.109Z,7.37
2019-05-17T06:10:25.657Z,4.65
2019-05-17T06:12:58.824Z,3.90
2019-05-17T06:15:46.116Z,3.25
2019-05-17T06:18:22.485Z,20.35
2019-05-17T06:21:05.418Z,13.15
2019-05-17T06:23:53.925Z,13.60
2019-05-17T06:26:26.056Z,6.67
2019-05-17T06:28:58.486Z,11.85
2019-05-17T06:31:27.855Z,10.68
2019-05-17T06:34:17.981Z,9.30
2019-05-17T06:36:47.396Z,14.70
2019-05-17T06:39:35.837Z,9.05
2019-05-17T06:42:08.904Z,7.62
2019-05-17T06:44:41.836Z,11.88
2019-05-17T06:47:15.167Z,9.18
2019-05-17T06:49:53.676Z,9.30
2019-05-17T06:52:22.900Z,11.60
2019-05-17T06:54:52.576Z,14.20
2019-05-17T06:57:24.892Z,10.08
2019-05-17T06:59:55.514Z,9.50
2019-05-17T07:02:40.319Z,6.83
2019-05-17T07:08:34.122Z,13.40
2019-05-17T07:11:09.714Z,7.42
2019-05-17T07:13:43.482Z,9.43
2019-05-17T07:16:30.119Z,7.33
2019-05-17T07:20:00.770Z,5.90
2019-05-17T07:23:20.365Z,5.20
2019-05-17T07:25:55.899Z,3.92
2019-05-17T07:28:40.361Z,6.80
2019-05-17T07:31:04.227Z,4.65
2019-05-17T07:33:42.523Z,4.17
2019-05-17T07:36:30.706Z,4.33
2019-05-17T07:39:00.814Z,4.42
2019-05-17T07:41:36.179Z,3.33
2019-05-17T07:44:11.758Z,8.00
2019-05-17T07:46:43.852Z,4.17
2019-05-17T07:49:15.108Z,2.95
2019-05-17T07:51:53.101Z,3.90
2019-05-17T07:54:24.448Z,3.02
2019-05-17T07:56:53.510Z,4.62
2019-05-17T07:59:23.476Z,2.95
2019-05-17T08:01:57.018Z,3.70
2019-05-17T08:04:51.878Z,5.53
2019-05-17T08:07:23.352Z,3.50
2019-05-17T08:10:06.107Z,2.75
2019-05-17T08:12:44.037Z,3.22
2019-05-17T08:15:23.872Z,2.60
2019-05-17T08:18:12.497Z,2.00
2019-05-17T08:20:46.620Z,3.15
2019-05-17T08:23:30.419Z,1.92
2019-05-17T08:26:40.590Z,2.80
2019-05-17T08:29:10.247Z,1.70
2019-05-17T08:31:40.406Z,3.92
2019-05-17T08:34:17.175Z,3.17
2019-05-17T08:37:20.412Z,1.45
2019-05-17T08:40:25.908Z,1.80
2019-05-17T08:43:01.833Z,3.05
2019-05-17T08:45:52.463Z,8.00
2019-05-17T08:48:35.453Z,4.15
2019-05-17T08:51:30.494Z,2.17
2019-05-17T08:54:33.650Z,6.67
2019-05-17T08:57:21.572Z,5.10
2019-05-17T09:00:20.714Z,3.87
2019-05-17T09:03:30.160Z,2.10
2019-05-17T09:06:43.111Z,2.08
2019-05-17T09:09:20.373Z,1.70
2019-05-17T09:12:29.860Z,4.00
2019-05-17T09:15:10.548Z,3.55
2019-05-17T09:17:49.881Z,4.22
2019-05-17T09:20:31.402Z,4.30
2019-05-17T09:23:21.035Z,2.77
2019-05-17T09:25:59.457Z,1.40
2019-05-17T09:28:30.198Z,2.05
2019-05-17T09:31:02.695Z,2.98
2019-05-17T09:36:46.770Z,4.65
2019-05-17T09:39:25.827Z,1.57
2019-05-17T09:41:59.639Z,3.70
2019-05-17T09:44:40.565Z,1.50
2019-05-17T09:47:25.473Z,2.27
2019-05-17T09:50:32.996Z,1.50
2019-05-17T09:53:21.749Z,1.98
2019-05-17T09:55:56.377Z,2.25
2019-05-17T09:58:31.101Z,1.62
2019-05-17T10:01:10.382Z,1.85
2019-05-17T10:03:50.375Z,2.80
2019-05-17T10:06:20.399Z,3.58
2019-05-17T10:09:00.182Z,2.02
2019-05-17T10:11:49.344Z,2.65
2019-05-17T10:14:52.555Z,3.10
2019-05-17T10:17:21.888Z,2.02
2019-05-17T10:20:19.969Z,2.45
2019-05-17T10:23:04.221Z,2.22
2019-05-17T10:25:49.675Z,1.90
2019-05-17T10:28:23.720Z,1.75
2019-05-17T10:30:57.457Z,1.50
2019-05-17T10:33:40.068Z,1.60
2019-05-17T10:36:14.509Z,1.35
2019-05-17T10:38:50.029Z,2.27
2019-05-17T10:41:31.114Z,1.98
2019-05-17T10:44:41.031Z,2.52
2019-05-17T10:47:03.488Z,1.92
2019-05-17T10:49:40.049Z,1.47
2019-05-17T10:52:24.741Z,1.35
2019-05-17T10:55:05.575Z,1.95
2019-05-17T10:57:38.293Z,1.82
2019-05-17T11:00:09.856Z,3.87
2019-05-17T11:02:41.086Z,5.30
2019-05-17T11:05:14.971Z,3.45
2019-05-17T11:07:52.001Z,5.53
2019-05-17T11:10:21.549Z,2.60
2019-05-17T11:13:04.561Z,3.27
2019-05-17T11:15:48.955Z,3.98
2019-05-17T11:18:38.286Z,3.62
2019-05-17T11:21:09.963Z,2.90
2019-05-17T11:23:52.208Z,3.70
2019-05-17T11:26:40.872Z,3.58
2019-05-17T11:29:27.911Z,2.22
2019-05-17T11:32:00.865Z,19.07
2019-05-17T11:37:30.739Z,16.45
2019-05-17T11:40:20.782Z,12.07
2019-05-17T11:43:00.648Z,9.25
2019-05-17T11:45:45.840Z,7.42
2019-05-17T11:48:17.898Z,7.92
2019-05-17T11:50:49.499Z,9.93
2019-05-17T11:55:48.535Z,12.20
2019-05-17T11:58:24.046Z,12.37
2019-05-17T12:03:49.635Z,14.58
2019-05-17T12:06:21.302Z,11.65
2019-05-17T12:11:38.288Z,10.00
2019-05-17T12:14:15.628Z,10.80
2019-05-17T12:16:48.264Z,14.60
2019-05-17T12:19:40.532Z,9.38
2019-05-17T12:22:09.726Z,13.20
2019-05-17T12:24:51.865Z,9.75
2019-05-17T12:27:25.189Z,10.78
2019-05-17T12:32:50.659Z,8.63
2019-05-17T12:35:27.524Z,12.07
2019-05-17T12:38:02.119Z,10.40
2019-05-17T12:40:32.025Z,9.10
2019-05-17T12:43:01.419Z,10.75
2019-05-17T12:45:30.665Z,8.30
2019-05-17T12:48:00.319Z,11.85
2019-05-17T12:50:29.839Z,11.08
2019-05-17T12:52:59.289Z,9.50
2019-05-17T12:55:29.193Z,11.48
2019-05-17T12:57:58.391Z,9.35
2019-05-17T13:00:27.532Z,10.15
2019-05-17T13:03:09.552Z,11.20
2019-05-17T13:05:38.975Z,10.82
2019-05-17T13:08:11.107Z,11.30
2019-05-17T13:10:40.531Z,9.95
2019-05-17T13:13:12.878Z,11.18
2019-05-17T13:15:42.433Z,10.10
2019-05-17T13:18:14.470Z,11.38
2019-05-17T13:20:43.847Z,12.35
2019-05-17T13:23:13.146Z,9.35
2019-05-17T13:25:45.346Z,8.48
2019-05-17T13:28:16.214Z,8.43
2019-05-17T13:31:42.897Z,9.65
2019-05-17T13:34:37.249Z,13.55
2019-05-17T13:37:10.284Z,11.78
2019-05-17T13:39:44.465Z,10.90
2019-05-17T13:42:19.126Z,10.80
2019-05-17T13:45:03.781Z,12.98
2019-05-17T13:47:37.524Z,15.25
2019-05-17T13:50:08.011Z,15.88
2019-05-17T13:52:52.986Z,14.07
2019-05-17T13:55:40.617Z,15.08
2019-05-17T13:58:19.135Z,19.82
2019-05-17T14:00:48.771Z,13.15
2019-05-17T14:03:21.029Z,13.80
2019-05-17T14:05:50.334Z,11.55
2019-05-17T14:08:21.229Z,15.32
2019-05-17T14:10:53.906Z,11.57
2019-05-17T14:13:56.338Z,9.33
2019-05-17T14:16:28.779Z,9.88
2019-05-17T14:19:05.195Z,12.18
2019-05-17T14:21:39.921Z,10.65
2019-05-17T14:24:41.933Z,10.75
2019-05-17T14:27:42.830Z,13.10
2019-05-17T14:30:19.611Z,9.65
2019-05-17T14:33:39.919Z,11.80
2019-05-17T14:36:15.876Z,12.70
2019-05-17T14:39:03.445Z,13.28
2019-05-17T14:41:33.121Z,10.48
2019-05-17T14:44:30.290Z,11.67
2019-05-17T14:47:59.195Z,11.03
2019-05-17T14:50:51.435Z,7.67
2019-05-17T14:54:07.862Z,8.85
2019-05-17T14:56:46.068Z,11.73
2019-05-17T14:59:31.883Z,11.70
2019-05-17T15:02:35.737Z,12.15
2019-05-17T15:05:14.214Z,9.20
2019-05-17T15:07:45.256Z,10.63
2019-05-17T15:10:15.338Z,11.80
2019-05-17T15:12:44.692Z,11.55
2019-05-17T15:15:25.769Z,12.85
2019-05-17T15:17:49.381Z,10.58
2019-05-17T15:20:19.146Z,14.47
2019-05-17T15:22:49.936Z,10.25
2019-05-17T15:28:45.286Z,7.97
2019-05-17T15:31:25.430Z,10.38
2019-05-17T15:33:59.342Z,10.25
2019-05-17T15:36:28.538Z,11.85
2019-05-17T15:38:58.037Z,8.00
2019-05-17T15:41:27.500Z,6.17
2019-05-17T15:44:00.202Z,10.80
2019-05-17T15:46:29.654Z,6.53
2019-05-17T15:48:58.893Z,10.80
2019-05-17T15:51:28.028Z,5.72
2019-05-17T15:53:57.350Z,13.75
2019-05-17T15:56:28.348Z,8.08
2019-05-17T15:59:04.919Z,9.98
2019-05-17T16:01:39.638Z,10.50
2019-05-17T16:04:10.733Z,8.33
2019-05-17T16:06:43.093Z,6.35
2019-05-17T16:09:14.902Z,12.00
2019-05-17T16:11:47.570Z,7.42
2019-05-17T16:14:23.532Z,7.28
2019-05-17T16:16:52.653Z,5.50
2019-05-17T16:19:24.081Z,9.40
2019-05-17T16:21:53.723Z,10.55
2019-05-17T16:24:23.251Z,12.33
2019-05-17T16:26:53.954Z,12.63
2019-05-17T16:29:24.386Z,28.50
2019-05-17T16:31:53.977Z,104.50
2019-05-17T16:34:23.672Z,168.85
2019-05-17T16:36:52.942Z,138.57
2019-05-17T16:39:22.817Z,109.67
2019-05-17T16:42:01.485Z,88.33
2019-05-17T16:44:37.052Z,86.72
2019-05-17T16:47:06.353Z,73.28
2019-05-17T16:49:38.654Z,81.00
2019-05-17T16:52:07.760Z,71.35
2019-05-17T16:55:05.126Z,66.95
2019-05-17T16:57:39.333Z,59.85
2019-05-17T17:00:30.567Z,62.40
2019-05-17T17:03:02.387Z,63.17
2019-05-17T17:11:13.181Z,49.80
2019-05-17T17:13:42.061Z,57.23
2019-05-17T17:16:15.387Z,55.43
2019-05-17T17:18:44.467Z,54.03
2019-05-17T17:21:13.785Z,42.53
2019-05-17T17:23:42.630Z,42.03
2019-05-17T17:26:11.690Z,42.10
2019-05-17T17:28:40.877Z,38.30
2019-05-17T17:31:13.594Z,35.78
2019-05-17T17:33:43.201Z,39.05
2019-05-17T17:36:12.311Z,38.05
2019-05-17T17:38:41.555Z,35.13
2019-05-17T17:41:11.056Z,28.02
2019-05-17T17:43:40.019Z,28.05
2019-05-17T17:46:09.174Z,25.68
2019-05-17T17:48:38.775Z,25.57
2019-05-17T17:51:08.076Z,25.35
2019-05-17T17:53:37.151Z,23.40
2019-05-17T17:56:07.848Z,24.37
2019-05-17T17:58:37.225Z,24.83
2019-05-17T18:01:06.660Z,20.02
2019-05-17T18:03:37.240Z,23.62
2019-05-17T18:06:08.077Z,24.85
2019-05-17T18:08:37.523Z,19.17
2019-05-17T18:11:10.563Z,22.70
2019-05-17T18:13:39.830Z,21.20
2019-05-17T18:16:11.806Z,17.85
2019-05-17T18:18:52.908Z,20.88
2019-05-17T18:21:22.903Z,17.82
2019-05-17T18:23:53.328Z,20.97
2019-05-17T18:26:22.573Z,14.75
2019-05-17T18:28:51.693Z,19.42
2019-05-17T18:31:20.652Z,23.12
2019-05-17T18:33:49.741Z,14.07
2019-05-17T18:36:18.938Z,13.85
2019-05-17T18:38:49.762Z,15.15
2019-05-17T18:41:21.952Z,16.07
2019-05-17T18:43:51.416Z,14.05
2019-05-17T18:46:22.215Z,14.13
2019-05-17T18:48:51.204Z,11.47
2019-05-17T18:51:20.490Z,10.25
2019-05-17T18:53:49.689Z,10.82
2019-05-17T18:56:18.944Z,11.85
2019-05-17T18:58:48.436Z,8.90
2019-05-17T19:01:17.920Z,11.22
2019-05-17T19:03:47.117Z,10.40
2019-05-17T19:06:16.157Z,10.48
2019-05-17T19:08:45.080Z,11.00
2019-05-17T19:11:15.915Z,9.20
2019-05-17T19:13:44.941Z,11.85
2019-05-17T19:16:14.065Z,10.40
2019-05-17T19:18:43.267Z,10.60
2019-05-17T19:21:12.339Z,10.68
2019-05-17T19:23:41.531Z,11.78
2019-05-17T19:26:20.437Z,7.65
2019-05-17T19:28:49.685Z,15.63
2019-05-17T19:31:18.967Z,9.58
2019-05-17T19:33:48.074Z,11.33
2019-05-17T19:36:17.163Z,9.03
2019-05-17T19:38:48.964Z,9.80
2019-05-17T19:41:19.811Z,9.10
2019-05-17T19:43:48.847Z,16.42
2019-05-17T19:46:18.468Z,13.95
2019-05-17T19:48:47.615Z,10.18
2019-05-17T19:51:16.851Z,12.33
2019-05-17T19:53:46.063Z,9.83
2019-05-17T19:56:15.168Z,12.53
2019-05-17T19:58:47.595Z,12.37
2019-05-17T20:01:19.933Z,10.48
2019-05-17T20:03:49.001Z,12.23
2019-05-17T20:06:20.874Z,11.85
2019-05-17T20:08:49.935Z,9.05
2019-05-17T20:11:33.395Z,10.72
2019-05-17T20:13:49.768Z,11.60
2019-05-17T20:16:18.897Z,9.48
2019-05-17T20:18:48.157Z,13.40
2019-05-17T20:21:17.130Z,9.08
2019-05-17T20:23:46.130Z,8.88
2019-05-17T20:26:15.291Z,8.73
2019-05-17T20:28:44.613Z,11.12
2019-05-17T20:31:13.813Z,9.43
2019-05-17T20:33:47.779Z,8.18
2019-05-17T20:36:16.960Z,8.98
2019-05-17T20:38:54.915Z,11.73
2019-05-17T20:41:25.854Z,9.13
2019-05-17T20:43:54.930Z,11.78
2019-05-17T20:46:27.049Z,9.23
2019-05-17T20:49:06.489Z,11.50
2019-05-17T20:51:45.775Z,9.10
2019-05-17T20:54:18.688Z,10.32
2019-05-17T20:56:47.923Z,10.98
2019-05-17T20:59:16.945Z,9.95
2019-05-17T21:02:02.855Z,9.58
2019-05-17T21:04:36.331Z,8.73
2019-05-17T21:07:13.315Z,10.58
2019-05-17T21:09:46.611Z,10.10
2019-05-17T21:12:15.746Z,9.23
2019-05-17T21:14:49.186Z,8.60
2019-05-17T21:17:19.938Z,9.95
2019-05-17T21:19:51.840Z,12.47
2019-05-17T21:22:28.942Z,11.00
2019-05-17T21:24:58.409Z,8.78
2019-05-17T21:27:29.682Z,10.43
2019-05-17T21:29:58.695Z,10.25
2019-05-17T21:32:30.933Z,10.53
2019-05-17T21:35:05.481Z,10.43
2019-05-17T21:37:38.154Z,12.05
2019-05-17T21:40:09.931Z,10.15
2019-05-17T21:42:38.828Z,11.43
2019-05-17T21:45:08.620Z,9.58
2019-05-17T21:47:46.132Z,11.73
2019-05-17T21:50:15.090Z,9.73
2019-05-17T21:52:44.463Z,11.15
2019-05-17T21:55:15.563Z,8.60
2019-05-17T21:57:48.057Z,10.20
2019-05-17T22:00:38.726Z,13.22
2019-05-17T22:03:09.142Z,8.78
2019-05-17T22:05:38.467Z,9.60
2019-05-17T22:08:16.201Z,7.35
2019-05-17T22:10:45.789Z,10.60
2019-05-17T22:13:21.389Z,8.90
2019-05-17T22:16:19.603Z,8.50
2019-05-17T22:18:45.472Z,10.40
2019-05-17T22:21:19.672Z,8.93
2019-05-17T22:23:50.915Z,10.28
2019-05-17T22:26:20.773Z,9.48
2019-05-17T22:29:11.317Z,7.25
2019-05-17T22:31:53.855Z,10.32
2019-05-17T22:34:23.325Z,10.23
2019-05-17T22:37:01.906Z,9.10
2019-05-17T22:39:39.033Z,8.85
2019-05-17T22:42:13.778Z,8.18
2019-05-17T22:44:43.193Z,9.78
2019-05-17T22:47:12.998Z,10.38
2019-05-17T22:49:48.740Z,7.53
2019-05-17T22:52:21.289Z,11.25
2019-05-17T22:55:03.707Z,9.58
2019-05-17T22:57:36.272Z,8.50
2019-05-17T23:00:05.985Z,9.55
2019-05-17T23:02:42.554Z,6.85
2019-05-17T23:05:12.071Z,7.08
2019-05-17T23:07:41.670Z,8.43
2019-05-17T23:10:12.828Z,8.40
2019-05-17T23:12:43.390Z,6.83
2019-05-17T23:15:12.527Z,9.23
2019-05-17T23:17:43.459Z,6.40
2019-05-17T23:20:17.359Z,6.62
2019-05-17T23:22:51.444Z,8.25
2019-05-17T23:25:20.952Z,7.55
2019-05-17T23:28:00.757Z,7.83
2019-05-17T23:30:33.344Z,9.88
2019-05-17T23:33:10.518Z,8.60
2019-05-17T23:35:40.022Z,9.60
2019-05-17T23:38:09.427Z,9.75
2019-05-17T23:40:50.244Z,6.33
2019-05-17T23:43:22.773Z,6.93
2019-05-17T23:45:55.040Z,7.60
2019-05-17T23:48:33.771Z,7.22
2019-05-17T23:51:03.010Z,7.95
2019-05-17T23:53:35.170Z,7.00
2019-05-17T23:56:04.474Z,7.60
2019-05-17T23:58:33.861Z,20.08
